Time;durP1;ratioP1;P1;durP2;ratioP2;P2;SDS_P1;SDS_P2;PMS_P1;PMS_P2;Temp;Humidity;BMP_temperature;BMP_pressure;BME280_temperature;BME280_humidity;BME280_pressure;Samples;Min_cycle;Max_cycle;Signal;HPM_P1;HPM_P2
2022/04/22 00:01:21;;;;;;;8.55;4.68;;;10.80;99.90;;;;;;5108209;28;20048;-78
2022/04/22 00:03:47;;;;;;;10.18;4.55;;;10.50;99.90;;;;;;5092434;28;20115;-77
2022/04/22 00:06:13;;;;;;;9.80;4.65;;;11.80;99.90;;;;;;5110519;28;20032;-78
2022/04/22 00:08:39;;;;;;;15.10;4.35;;;10.40;99.90;;;;;;5092365;28;20390;-78
2022/04/22 00:13:50;;;;;;;9.00;4.68;;;10.50;99.90;;;;;;5092695;28;20131;-78
2022/04/22 00:16:19;;;;;;;8.45;4.32;;;10.70;99.90;;;;;;5107734;28;20032;-78
2022/04/22 00:18:45;;;;;;;7.25;4.00;;;10.20;99.90;;;;;;5107920;28;20047;-78
2022/04/22 00:21:11;;;;;;;8.50;4.13;;;10.10;99.90;;;;;;5089900;28;20040;-78
2022/04/22 00:23:37;;;;;;;10.40;4.07;;;11.40;99.90;;;;;;5107632;28;20490;-77
2022/04/22 00:26:03;;;;;;;6.68;3.97;;;9.90;99.90;;;;;;5089617;28;20512;-78
2022/04/22 00:28:29;;;;;;;7.18;4.15;;;9.90;99.90;;;;;;5107212;28;20047;-78
2022/04/22 00:30:55;;;;;;;12.35;3.92;;;10.80;99.90;;;;;;5072706;28;20046;-78
2022/04/22 00:33:22;;;;;;;7.38;3.72;;;11.00;99.90;;;;;;5107808;28;20124;-78
2022/04/22 00:35:48;;;;;;;9.18;4.43;;;9.80;99.90;;;;;;5107301;28;20088;-78
2022/04/22 00:38:15;;;;;;;11.80;4.63;;;9.70;99.90;;;;;;5072331;28;20079;-78
2022/04/22 00:40:41;;;;;;;7.45;4.35;;;10.90;99.90;;;;;;5071582;28;20503;-78
2022/04/22 00:43:13;;;;;;;8.10;3.50;;;9.90;99.90;;;;;;5089507;28;20048;-78
2022/04/22 00:45:39;;;;;;;6.88;3.50;;;9.70;99.90;;;;;;5107220;28;20040;-78
2022/04/22 00:48:05;;;;;;;11.43;4.55;;;10.80;99.90;;;;;;5055317;28;20089;-78
2022/04/22 00:50:31;;;;;;;9.18;4.03;;;9.70;99.90;;;;;;5072258;28;20050;-78
2022/04/22 00:52:57;;;;;;;6.20;3.78;;;9.70;99.90;;;;;;5088243;28;20051;-77
2022/04/22 00:55:23;;;;;;;7.80;4.25;;;9.60;99.90;;;;;;5088633;28;20051;-77
2022/04/22 00:57:50;;;;;;;6.68;3.67;;;9.60;99.90;;;;;;5107197;28;20586;-77
2022/04/22 01:00:16;;;;;;;9.35;4.43;;;9.60;99.90;;;;;;5089172;28;20051;-77
2022/04/22 01:02:42;;;;;;;7.05;4.22;;;9.60;99.90;;;;;;5088640;28;20122;-77
2022/04/22 01:10:38;;;;;;;7.93;4.50;;;10.70;99.90;;;;;;5087730;28;20050;-78
2022/04/22 01:13:04;;;;;;;8.07;4.60;;;9.50;99.90;;;;;;5088610;28;20040;-78
2022/04/22 01:15:30;;;;;;;11.30;4.38;;;9.50;99.90;;;;;;5088012;28;20043;-78
2022/04/22 01:17:56;;;;;;;10.98;4.45;;;9.50;99.90;;;;;;5071061;28;20047;-78
2022/04/22 01:20:22;;;;;;;6.78;4.07;;;9.40;99.90;;;;;;5071459;28;20101;-78
2022/04/22 01:22:47;;;;;;;8.90;4.20;;;9.20;99.90;;;;;;5106133;28;20050;-79
2022/04/22 01:25:13;;;;;;;7.55;4.18;;;9.30;99.90;;;;;;5106230;28;20040;-79
2022/04/22 01:27:39;;;;;;;8.55;4.70;;;9.30;99.90;;;;;;5087734;28;20089;-79
2022/04/22 01:30:06;;;;;;;8.95;5.22;;;9.30;99.90;;;;;;5071540;28;20043;-79
2022/04/22 01:32:32;;;;;;;10.57;4.28;;;9.00;99.90;;;;;;5088342;28;20039;-78
2022/04/22 01:34:57;;;;;;;7.93;4.25;;;9.20;99.90;;;;;;5088178;28;20388;-79
2022/04/22 01:37:23;;;;;;;14.27;4.00;;;9.10;99.90;;;;;;5106914;28;20043;-78
2022/04/22 01:39:49;;;;;;;11.10;4.95;;;10.10;99.90;;;;;;5106534;28;20480;-79
2022/04/22 01:42:18;;;;;;;9.07;4.30;;;9.00;99.90;;;;;;5110019;28;20379;-79
2022/04/22 01:44:44;;;;;;;9.07;4.75;;;9.00;99.90;;;;;;5091411;28;20180;-79
2022/04/22 01:47:10;;;;;;;7.60;4.63;;;8.90;99.90;;;;;;5107400;28;20071;-78
2022/04/22 01:49:35;;;;;;;8.63;4.40;;;9.00;99.90;;;;;;5105692;28;20213;-79
2022/04/22 01:52:01;;;;;;;10.23;4.70;;;9.00;99.90;;;;;;5088074;28;20043;-79
2022/04/22 01:54:27;;;;;;;9.18;4.00;;;8.80;99.90;;;;;;5105665;28;20147;-79
2022/04/22 01:56:53;;;;;;;14.10;4.40;;;8.70;99.90;;;;;;5087398;28;20047;-79
2022/04/22 01:59:19;;;;;;;9.50;3.72;;;9.70;99.90;;;;;;5106443;28;20047;-78
2022/04/22 02:01:45;;;;;;;7.78;3.72;;;8.60;99.90;;;;;;5087584;28;20488;-79
2022/04/22 02:04:11;;;;;;;14.55;4.70;;;8.60;99.90;;;;;;5106344;28;20317;-79
2022/04/22 02:06:36;;;;;;;7.22;4.07;;;8.60;99.90;;;;;;5105331;28;20697;-77
2022/04/22 02:09:03;;;;;;;8.73;4.10;;;8.60;99.90;;;;;;5087593;28;20047;-77
2022/04/22 02:11:28;;;;;;;7.65;3.75;;;9.50;99.90;;;;;;5105685;28;20123;-78
2022/04/22 02:13:54;;;;;;;7.28;4.28;;;8.90;99.90;;;;;;5105593;28;20127;-77
2022/04/22 02:16:20;;;;;;;10.63;4.45;;;8.50;99.90;;;;;;5087948;28;20087;-77
2022/04/22 02:18:46;;;;;;;12.05;4.65;;;8.40;99.90;;;;;;5053421;28;20040;-77
2022/04/22 02:21:11;;;;;;;8.98;4.20;;;9.10;99.90;;;;;;5105775;28;20051;-77
2022/04/22 02:23:37;;;;;;;7.63;4.05;;;8.20;99.90;;;;;;5105094;28;20050;-78
2022/04/22 02:26:04;;;;;;;10.63;4.13;;;8.40;99.90;;;;;;5105776;28;20058;-77
2022/04/22 02:28:33;;;;;;;8.43;4.05;;;8.40;99.90;;;;;;5071035;28;20043;-77
2022/04/22 02:30:59;;;;;;;8.55;3.88;;;8.30;99.90;;;;;;5091798;28;20448;-77
2022/04/22 02:33:25;;;;;;;10.85;3.95;;;9.10;99.90;;;;;;5075047;28;20040;-78
2022/04/22 02:35:51;;;;;;;9.73;4.22;;;8.30;99.90;;;;;;5091182;28;20057;-77
2022/04/22 02:38:17;;;;;;;9.10;4.30;;;8.20;99.90;;;;;;5109890;28;20047;-78
2022/04/22 02:46:11;;;;;;;9.10;3.45;;;9.50;99.90;;;;;;5109692;28;20152;-78
2022/04/22 02:48:37;;;;;;;11.48;4.47;;;8.50;99.90;;;;;;5090905;28;20053;-77
2022/04/22 02:51:03;;;;;;;7.03;3.72;;;8.10;99.90;;;;;;5074600;28;20491;-77
2022/04/22 02:53:28;;;;;;;10.02;4.05;;;8.10;99.90;;;;;;5108978;28;20376;-77
2022/04/22 02:55:54;;;;;;;9.00;4.10;;;8.80;99.90;;;;;;5091400;28;20528;-77
2022/04/22 02:58:20;;;;;;;11.02;3.88;;;8.00;99.90;;;;;;5109136;28;20043;-77
2022/04/22 03:00:46;;;;;;;9.13;3.60;;;8.00;99.90;;;;;;5073386;28;20043;-77
2022/04/22 03:03:12;;;;;;;11.15;4.00;;;8.00;99.90;;;;;;5073927;28;20039;-77
2022/04/22 03:05:38;;;;;;;9.73;4.75;;;8.10;99.90;;;;;;5108714;28;20048;-77
2022/04/22 03:08:05;;;;;;;6.70;4.15;;;8.00;99.90;;;;;;5090943;28;20040;-78
2022/04/22 03:10:31;;;;;;;12.15;4.20;;;8.00;99.90;;;;;;5090360;28;20058;-78
2022/04/22 03:12:57;;;;;;;6.90;4.03;;;8.70;99.90;;;;;;5091155;28;20051;-77
2022/04/22 03:15:23;;;;;;;11.70;4.25;;;8.00;99.90;;;;;;5109695;28;20043;-78
2022/04/22 03:17:49;;;;;;;10.55;3.42;;;7.90;99.90;;;;;;5074541;28;20529;-78
2022/04/22 03:20:15;;;;;;;8.90;4.53;;;8.00;99.90;;;;;;5075945;28;20116;-77
2022/04/22 03:22:41;;;;;;;8.52;3.53;;;8.90;99.90;;;;;;5090411;28;20126;-78
2022/04/22 03:25:08;;;;;;;9.98;4.28;;;7.90;99.90;;;;;;5108813;28;20476;-78
2022/04/22 03:27:34;;;;;;;6.78;4.28;;;7.20;99.90;;;;;;5089234;28;20040;-78
2022/04/22 03:30:02;;;;;;;10.45;4.15;;;7.90;99.90;;;;;;5073271;28;20071;-78
2022/04/22 03:32:28;;;;;;;9.27;4.20;;;7.80;99.90;;;;;;5056930;28;20047;-78
2022/04/22 03:34:54;;;;;;;8.30;4.93;;;7.80;99.90;;;;;;5090240;28;20032;-78
2022/04/22 03:37:20;;;;;;;7.50;4.20;;;9.20;99.90;;;;;;5108743;28;20039;-78
2022/04/22 03:39:46;;;;;;;8.70;4.13;;;7.80;99.90;;;;;;5089785;28;20391;-78
2022/04/22 03:42:12;;;;;;;7.43;4.03;;;7.80;99.90;;;;;;5108154;28;20502;-79
2022/04/22 03:44:37;;;;;;;9.82;3.92;;;7.70;99.90;;;;;;5107603;28;20047;-78
2022/04/22 03:47:04;;;;;;;8.73;4.03;;;8.80;99.90;;;;;;5108370;28;20043;-78
2022/04/22 03:49:33;;;;;;;8.63;4.18;;;7.70;99.90;;;;;;5107810;28;20169;-78
2022/04/22 03:51:59;;;;;;;4.97;3.70;;;7.60;99.90;;;;;;5073499;28;20092;-78
2022/04/22 03:54:25;;;;;;;10.88;3.58;;;7.60;99.90;;;;;;5108444;28;20040;-78
2022/04/22 03:59:35;;;;;;;5.60;3.70;;;7.50;99.90;;;;;;5089665;28;20058;-78
2022/04/22 04:02:03;;;;;;;5.35;3.50;;;7.50;99.90;;;;;;5107591;28;20158;-78
2022/04/22 04:04:29;;;;;;;6.90;3.70;;;7.40;99.90;;;;;;5089868;28;20074;-78
2022/04/22 04:06:55;;;;;;;5.70;3.33;;;7.40;99.90;;;;;;5089541;28;20479;-78
2022/04/22 04:17:36;;;;;;;7.38;3.42;;;8.20;99.90;;;;;;5107192;28;20141;-78
2022/04/22 04:25:32;;;;;;;8.27;3.42;;;7.10;99.90;;;;;;5107937;28;20055;-77
2022/04/22 04:27:57;;;;;;;4.95;3.38;;;6.20;99.90;;;;;;5107529;28;20035;-78
2022/04/22 04:30:23;;;;;;;6.38;3.50;;;8.30;99.90;;;;;;5107175;28;20036;-78
2022/04/22 04:32:49;;;;;;;7.35;3.58;;;7.60;99.90;;;;;;5107471;28;20043;-78
2022/04/22 04:35:15;;;;;;;8.85;3.90;;;7.90;99.90;;;;;;5088802;28;20456;-78
2022/04/22 04:37:41;;;;;;;5.95;3.33;;;7.00;99.90;;;;;;5107437;28;20605;-78
2022/04/22 04:40:11;;;;;;;7.57;3.45;;;8.40;99.90;;;;;;5106792;28;20093;-78
2022/04/22 04:42:37;;;;;;;7.35;3.33;;;7.00;99.90;;;;;;5107648;28;20498;-77
2022/04/22 04:45:06;;;;;;;4.85;2.65;;;7.00;99.90;;;;;;5106957;28;20050;-78
2022/04/22 04:47:40;;;;;;;4.97;2.95;;;7.00;99.90;;;;;;5108409;28;20039;-76
2022/04/22 04:50:06;;;;;;;6.80;3.22;;;7.00;99.90;;;;;;5107912;28;20109;-78
2022/04/22 04:52:33;;;;;;;5.30;3.45;;;7.00;99.90;;;;;;5108037;28;20040;-78
2022/04/22 04:54:59;;;;;;;4.97;2.92;;;7.80;99.90;;;;;;5109528;28;20047;-77
2022/04/22 04:57:25;;;;;;;6.88;3.13;;;7.00;99.90;;;;;;5087956;28;20075;-78
2022/04/22 04:59:51;;;;;;;5.88;3.40;;;7.00;99.90;;;;;;5107687;28;20568;-78
2022/04/22 05:02:17;;;;;;;5.57;2.65;;;7.00;99.90;;;;;;5107019;28;20055;-77
2022/04/22 05:04:42;;;;;;;9.60;2.85;;;7.10;99.90;;;;;;5089181;28;20084;-77
2022/04/22 05:07:08;;;;;;;6.40;3.00;;;7.10;99.90;;;;;;5107215;28;20142;-76
2022/04/22 05:09:34;;;;;;;6.03;2.97;;;7.10;99.90;;;;;;5106917;28;20046;-76
2022/04/22 05:11:59;;;;;;;7.80;2.85;;;7.20;99.90;;;;;;5107740;28;20078;-77
2022/04/22 05:14:26;;;;;;;4.55;2.45;;;7.20;99.90;;;;;;5106828;28;20479;-78
2022/04/22 05:16:54;;;;;;;4.68;2.72;;;7.20;99.90;;;;;;5089404;28;20064;-78
2022/04/22 05:19:21;;;;;;;3.22;1.92;;;7.30;99.90;;;;;;5089266;28;20044;-79
2022/04/22 05:21:47;;;;;;;4.25;2.40;;;7.30;99.90;;;;;;5088585;28;20047;-79
2022/04/22 05:24:13;;;;;;;5.88;2.47;;;7.30;99.90;;;;;;5071836;28;20135;-79
2022/04/22 05:26:39;;;;;;;3.28;1.98;;;7.70;99.90;;;;;;5071406;28;20032;-79
2022/04/22 05:32:36;;;;;;;6.15;2.30;;;8.60;99.90;;;;;;5089283;28;20042;-80
2022/04/22 05:34:34;;;;;;;3.47;2.03;;;7.60;99.90;;;;;;5091229;28;20483;-78
2022/04/22 05:37:00;;;;;;;6.18;2.33;;;7.70;99.90;;;;;;5107348;28;20040;-79
2022/04/22 05:39:26;;;;;;;6.43;2.17;;;7.70;99.90;;;;;;5088451;28;20058;-78
2022/04/22 05:41:51;;;;;;;5.82;1.90;;;7.80;99.90;;;;;;5071896;28;20559;-78
2022/04/22 05:44:17;;;;;;;4.50;1.55;;;7.80;99.90;;;;;;5087832;28;20400;-78
2022/04/22 05:46:45;;;;;;;4.07;2.28;;;7.90;99.90;;;;;;5055263;28;20071;-79
2022/04/22 05:49:11;;;;;;;6.65;2.20;;;8.80;99.90;;;;;;5106202;28;20459;-79
2022/04/22 05:51:37;;;;;;;4.10;1.70;;;8.10;99.90;;;;;;5088219;28;20047;-78
2022/04/22 05:54:02;;;;;;;6.07;2.25;;;8.90;99.90;;;;;;5106366;28;20509;-78
2022/04/22 05:56:29;;;;;;;7.15;2.13;;;9.40;99.90;;;;;;5071556;28;20425;-79
2022/04/22 05:58:55;;;;;;;3.10;1.75;;;8.30;99.90;;;;;;5071024;28;20581;-79
2022/04/22 06:01:22;;;;;;;5.22;2.08;;;8.90;99.90;;;;;;5070140;28;20553;-78
2022/04/22 06:03:48;;;;;;;4.00;2.05;;;8.50;99.90;;;;;;5070309;28;20043;-79
2022/04/22 06:06:14;;;;;;;3.67;1.80;;;8.60;99.90;;;;;;5105762;28;20066;-79
2022/04/22 06:11:24;;;;;;;6.72;1.83;;;8.80;99.90;;;;;;5088019;28;20457;-79
2022/04/22 06:13:50;;;;;;;3.67;1.65;;;9.10;99.90;;;;;;5105807;28;20142;-79
2022/04/22 06:16:15;;;;;;;6.15;1.92;;;8.90;99.90;;;;;;5106452;28;20043;-79
2022/04/22 06:18:41;;;;;;;2.70;1.67;;;9.00;99.90;;;;;;5087154;28;20052;-79
2022/04/22 06:21:07;;;;;;;5.88;1.52;;;9.10;99.90;;;;;;5055236;28;20135;-79
2022/04/22 06:23:34;;;;;;;3.95;1.73;;;9.20;99.90;;;;;;5088996;28;20056;-79
2022/04/22 06:26:00;;;;;;;6.25;1.67;;;9.30;99.90;;;;;;5087815;28;20047;-79
2022/04/22 06:28:27;;;;;;;13.48;1.92;;;9.40;99.90;;;;;;5054503;28;20042;-79
2022/04/22 06:30:53;;;;;;;2.65;1.40;;;9.40;99.90;;;;;;5087024;28;20075;-79
2022/04/22 06:33:19;;;;;;;3.22;1.48;;;9.50;99.90;;;;;;5106172;28;20039;-79
2022/04/22 06:35:45;;;;;;;2.90;1.50;;;9.60;99.90;;;;;;5105071;28;20058;-77
2022/04/22 06:38:18;;;;;;;3.10;1.58;;;9.70;99.90;;;;;;5087514;28;20040;-76
2022/04/22 06:46:13;;;;;;;5.18;1.75;;;10.00;99.90;;;;;;5105819;28;20076;-78
2022/04/22 06:48:39;;;;;;;3.53;1.92;;;10.10;99.90;;;;;;5069968;28;20126;-77
2022/04/22 06:51:08;;;;;;;5.07;1.58;;;10.20;99.90;;;;;;5086799;28;20044;-77
2022/04/22 06:53:35;;;;;;;15.90;2.22;;;10.20;99.90;;;;;;5070631;28;20192;-77
2022/04/22 06:56:02;;;;;;;5.57;1.73;;;10.80;99.90;;;;;;5069852;28;20054;-77
2022/04/22 06:58:32;;;;;;;6.65;2.25;;;10.40;99.90;;;;;;5053469;28;20050;-77
2022/04/22 07:00:59;;;;;;;5.03;1.30;;;10.50;99.90;;;;;;5086228;28;20048;-77
2022/04/22 07:03:25;;;;;;;4.85;1.83;;;10.50;99.90;;;;;;5070732;28;20051;-77
2022/04/22 07:05:51;;;;;;;9.55;1.80;;;10.70;99.90;;;;;;5086615;28;20040;-78
2022/04/22 07:08:19;;;;;;;7.55;1.90;;;10.70;99.90;;;;;;5105153;28;20047;-78
2022/04/22 07:10:48;;;;;;;3.47;1.42;;;10.80;99.90;;;;;;5086994;28;20497;-78
2022/04/22 07:13:16;;;;;;;3.28;1.30;;;10.90;99.90;;;;;;5086608;28;20043;-78
2022/04/22 07:15:44;;;;;;;2.60;1.58;;;11.00;99.90;;;;;;5108209;28;20051;-78
2022/04/22 07:18:10;;;;;;;3.70;1.52;;;11.10;99.90;;;;;;5073445;28;20075;-77
2022/04/22 07:20:37;;;;;;;2.92;1.40;;;11.20;99.90;;;;;;5090754;28;20049;-78
2022/04/22 07:23:03;;;;;;;3.20;1.45;;;11.30;99.90;;;;;;5089938;28;20044;-78
2022/04/22 07:25:29;;;;;;;3.40;1.65;;;11.30;99.90;;;;;;5090083;28;20088;-77
2022/04/22 07:27:56;;;;;;;3.95;1.20;;;11.50;99.90;;;;;;5073691;28;20047;-77
2022/04/22 07:30:23;;;;;;;4.85;1.70;;;11.60;99.90;;;;;;5072862;28;20043;-77
2022/04/22 07:32:49;;;;;;;4.15;1.45;;;11.60;99.90;;;;;;5110730;28;20056;-77
2022/04/22 07:35:17;;;;;;;4.18;1.08;;;11.80;99.90;;;;;;5076330;28;20071;-77
2022/04/22 07:37:48;;;;;;;3.00;1.20;;;11.90;99.90;;;;;;5076035;28;20054;-78
2022/04/22 07:40:16;;;;;;;3.97;1.63;;;11.90;99.90;;;;;;5111223;28;20032;-78
2022/04/22 07:48:18;;;;;;;3.85;1.38;;;12.10;99.90;;;;;;5110491;28;20130;-77
2022/04/22 07:50:47;;;;;;;6.72;2.35;;;12.20;99.90;;;;;;5111746;28;20044;-78
2022/04/22 07:53:17;;;;;;;7.03;1.75;;;11.80;99.90;;;;;;5112159;28;20039;-78
2022/04/22 07:55:43;;;;;;;8.10;1.80;;;12.20;99.90;;;;;;5093359;28;20032;-77
2022/04/22 07:58:10;;;;;;;6.05;1.80;;;12.30;99.90;;;;;;5111515;28;20511;-78
2022/04/22 08:00:38;;;;;;;4.03;1.55;;;12.40;99.90;;;;;;5110288;28;20048;-75
2022/04/22 08:03:05;;;;;;;2.80;1.52;;;12.60;99.90;;;;;;5093332;28;20052;-77
2022/04/22 08:05:31;;;;;;;2.92;1.83;;;12.70;99.90;;;;;;5092147;28;20390;-76
2022/04/22 08:07:57;;;;;;;1.67;1.17;;;12.70;99.90;;;;;;5110999;28;20109;-76
2022/04/22 08:10:23;;;;;;;3.40;1.42;;;12.80;99.90;;;;;;5092814;28;20380;-77
2022/04/22 08:12:50;;;;;;;2.35;1.42;;;13.00;99.90;;;;;;5110510;28;20044;-77
2022/04/22 08:15:18;;;;;;;5.30;1.27;;;13.10;99.90;;;;;;5110744;28;20514;-77
2022/04/22 08:17:44;;;;;;;2.17;1.33;;;13.30;99.90;;;;;;5074666;28;20046;-77
2022/04/22 08:20:11;;;;;;;2.70;1.67;;;13.80;99.90;;;;;;5111296;28;20042;-77
2022/04/22 08:22:37;;;;;;;3.28;1.52;;;14.30;99.90;;;;;;5091697;28;20493;-75
2022/04/22 08:25:04;;;;;;;2.63;1.17;;;14.60;99.90;;;;;;5075849;28;20090;-77
2022/04/22 08:27:30;;;;;;;2.22;1.02;;;14.80;99.90;;;;;;5091161;28;20071;-77
2022/04/22 08:29:56;;;;;;;3.10;1.25;;;14.90;99.80;;;;;;5110429;28;20497;-76
2022/04/22 08:32:22;;;;;;;4.72;1.55;;;15.10;99.50;;;;;;5110970;28;20036;-76
2022/04/22 08:34:48;;;;;;;5.10;1.20;;;15.20;98.80;;;;;;5110098;28;20406;-76
2022/04/22 08:37:13;;;;;;;3.20;1.45;;;15.20;98.30;;;;;;5110098;28;20039;-77
2022/04/22 08:39:39;;;;;;;3.28;1.05;;;15.40;98.00;;;;;;5074479;28;20058;-77
2022/04/22 08:42:06;;;;;;;2.85;1.73;;;15.50;97.40;;;;;;5110137;28;20112;-78
2022/04/22 08:44:32;;;;;;;2.50;1.17;;;15.60;96.80;;;;;;5110111;28;20044;-76
2022/04/22 08:52:28;;;;;;;4.45;1.20;;;15.70;96.50;;;;;;5109117;28;20108;-77
2022/04/22 08:54:54;;;;;;;3.00;1.20;;;15.80;96.80;;;;;;5109781;28;20079;-77
2022/04/22 08:57:21;;;;;;;5.93;1.40;;;15.80;96.70;;;;;;5074809;28;20035;-77
2022/04/22 08:59:47;;;;;;;4.75;1.50;;;15.80;96.50;;;;;;5090850;28;20392;-76
2022/04/22 09:02:17;;;;;;;4.00;1.48;;;15.80;96.80;;;;;;5091606;28;20077;-77
2022/04/22 09:04:44;;;;;;;10.32;2.35;;;15.80;95.40;;;;;;5109014;28;20052;-76
2022/04/22 09:07:13;;;;;;;8.93;1.70;;;15.80;96.40;;;;;;5110377;28;20042;-77
2022/04/22 09:09:42;;;;;;;3.60;1.52;;;15.80;96.20;;;;;;5109695;28;20039;-76
2022/04/22 09:12:12;;;;;;;3.38;1.52;;;15.80;95.60;;;;;;5109857;28;20075;-77
2022/04/22 09:14:51;;;;;;;2.95;1.50;;;15.60;95.90;;;;;;5091666;28;20058;-77
2022/04/22 09:17:25;;;;;;;5.10;1.52;;;15.60;92.20;;;;;;5090753;28;20461;-76
2022/04/22 09:19:52;;;;;;;3.90;1.40;;;15.50;94.10;;;;;;5109289;28;20047;-76
2022/04/22 09:22:19;;;;;;;3.45;1.75;;;15.50;95.90;;;;;;5090431;28;20327;-78
2022/04/22 09:24:54;;;;;;;6.05;1.70;;;15.50;95.50;;;;;;5108861;28;20478;-78
2022/04/22 09:27:37;;;;;;;2.20;1.33;;;15.50;93.90;;;;;;5089753;28;20055;-76
2022/04/22 09:30:07;;;;;;;4.13;1.70;;;15.60;93.90;;;;;;5089556;28;20063;-77
2022/04/22 09:32:34;;;;;;;5.40;1.90;;;15.70;94.90;;;;;;5057321;28;20070;-76
2022/04/22 09:35:11;;;;;;;4.32;1.98;;;15.90;94.30;;;;;;5089443;28;20492;-76
2022/04/22 09:43:36;;;;;;;4.13;1.45;;;16.30;90.50;;;;;;5107385;28;20043;-76
2022/04/22 09:46:02;;;;;;;6.28;1.75;;;16.50;91.40;;;;;;5108574;28;20103;-77
2022/04/22 09:48:41;;;;;;;4.28;1.73;;;16.70;91.00;;;;;;5090084;28;20122;-75
2022/04/22 09:51:20;;;;;;;5.10;2.03;;;16.80;89.80;;;;;;5089448;28;20057;-76
2022/04/22 09:53:48;;;;;;;3.67;1.30;;;17.00;85.40;;;;;;5072885;28;20047;-77
2022/04/22 09:56:16;;;;;;;3.70;1.33;;;16.90;87.50;;;;;;5071476;28;20035;-78
2022/04/22 09:58:42;;;;;;;3.17;1.55;;;16.90;87.80;;;;;;5072731;28;20062;-76
2022/04/22 10:01:08;;;;;;;4.57;1.55;;;16.90;86.90;;;;;;5071432;28;20518;-76
2022/04/22 10:03:35;;;;;;;2.00;1.20;;;16.90;87.00;;;;;;5088180;28;20125;-75
2022/04/22 10:06:02;;;;;;;2.67;1.15;;;16.90;84.20;;;;;;5088178;28;20094;-77
2022/04/22 10:08:31;;;;;;;1.75;1.17;;;17.00;85.20;;;;;;5087904;28;20437;-77
2022/04/22 10:11:00;;;;;;;4.60;1.73;;;17.10;77.50;;;;;;5071909;28;20040;-76
2022/04/22 10:13:33;;;;;;;8.93;2.00;;;17.10;80.40;;;;;;5054050;28;20122;-78
2022/04/22 10:16:00;;;;;;;5.05;2.10;;;17.10;80.80;;;;;;5088620;28;20039;-78
2022/04/22 10:18:27;;;;;;;6.25;1.52;;;17.10;82.80;;;;;;5088212;28;20044;-78
2022/04/22 10:20:54;;;;;;;4.15;1.60;;;17.10;82.70;;;;;;5087485;28;20422;-77
2022/04/22 10:23:20;;;;;;;2.95;1.60;;;17.10;82.70;;;;;;5087801;28;20122;-77
2022/04/22 10:25:47;;;;;;;2.42;1.75;;;17.30;83.10;;;;;;5070992;28;20500;-78
2022/04/22 10:28:13;;;;;;;7.30;1.70;;;17.40;80.90;;;;;;5106884;28;20070;-77
2022/04/22 10:30:42;;;;;;;2.78;1.60;;;17.40;79.50;;;;;;5087127;28;20050;-78
2022/04/22 10:33:11;;;;;;;4.28;1.23;;;17.50;77.80;;;;;;5106438;28;20088;-77
2022/04/22 10:35:42;;;;;;;4.63;1.70;;;17.50;75.70;;;;;;5071453;28;20051;-77
2022/04/22 10:38:40;;;;;;;2.10;1.20;;;17.60;76.70;;;;;;5070395;28;20056;-77
2022/04/22 10:41:20;;;;;;;6.57;1.98;;;17.70;70.50;;;;;;5088007;28;20051;-78
2022/04/22 10:49:40;;;;;;;3.85;1.45;;;18.00;72.70;;;;;;5089077;28;20050;-78
2022/04/22 10:52:10;;;;;;;3.42;2.10;;;18.00;69.20;;;;;;5074199;28;20039;-78
2022/04/22 10:54:54;;;;;;;4.28;1.52;;;18.00;70.90;;;;;;5110439;28;20043;-77
2022/04/22 10:57:23;;;;;;;4.25;1.55;;;18.10;64.80;;;;;;5109952;28;20152;-77
2022/04/22 11:00:09;;;;;;;2.72;1.50;;;18.10;69.10;;;;;;5109342;28;20088;-77
2022/04/22 11:02:42;;;;;;;3.10;1.77;;;18.20;68.10;;;;;;5091813;28;20048;-77
2022/04/22 11:05:20;;;;;;;3.60;1.50;;;18.30;71.70;;;;;;5091630;28;20426;-78
2022/04/22 11:07:57;;;;;;;4.00;1.63;;;18.50;66.50;;;;;;5091487;28;20047;-77
2022/04/22 11:10:42;;;;;;;3.45;1.45;;;18.60;66.80;;;;;;5091631;28;20075;-78
2022/04/22 11:13:07;;;;;;;3.10;1.30;;;18.70;66.70;;;;;;5109175;28;20118;-78
2022/04/22 11:15:42;;;;;;;3.67;2.03;;;18.80;66.10;;;;;;5092107;28;20134;-78
2022/04/22 11:18:16;;;;;;;2.40;1.80;;;18.80;63.00;;;;;;5091565;28;20054;-78
2022/04/22 11:20:44;;;;;;;3.70;1.60;;;18.80;64.40;;;;;;5090843;28;20047;-77
2022/04/22 11:23:14;;;;;;;5.20;1.75;;;18.90;64.50;;;;;;5091736;28;20050;-77
2022/04/22 11:25:41;;;;;;;6.88;2.10;;;19.00;64.60;;;;;;5090711;28;20048;-78
2022/04/22 11:28:08;;;;;;;4.57;1.90;;;19.00;64.10;;;;;;5058476;28;20079;-76
2022/04/22 11:30:34;;;;;;;2.75;1.85;;;18.90;64.30;;;;;;5090713;28;20050;-76
2022/04/22 11:33:23;;;;;;;5.32;2.70;;;19.10;63.70;;;;;;5109869;28;20185;-76
2022/04/22 11:35:53;;;;;;;5.43;2.00;;;19.20;59.70;;;;;;5110562;28;20079;-76
2022/04/22 11:38:20;;;;;;;3.05;1.95;;;19.20;62.30;;;;;;5090900;28;20054;-75
2022/04/22 11:40:49;;;;;;;2.47;1.73;;;19.30;62.00;;;;;;5091431;28;20051;-75
2022/04/22 11:43:18;;;;;;;3.88;2.20;;;19.30;61.30;;;;;;5090221;28;20044;-75
2022/04/22 11:45:48;;;;;;;7.38;2.03;;;19.30;61.20;;;;;;5109258;28;20035;-75
2022/04/22 11:48:18;;;;;;;5.53;2.13;;;19.30;61.10;;;;;;5109503;28;20382;-75
2022/04/22 11:50:45;;;;;;;3.65;2.08;;;19.40;61.00;;;;;;5091127;28;20075;-75
2022/04/22 11:53:23;;;;;;;6.78;1.83;;;19.40;60.10;;;;;;5091219;28;20051;-75
2022/04/22 11:55:50;;;;;;;10.07;1.85;;;19.60;59.50;;;;;;5090037;28;20134;-76
2022/04/22 11:58:19;;;;;;;2.33;1.75;;;19.70;60.80;;;;;;5109347;28;20044;-74
2022/04/22 12:06:15;;;;;;;5.70;2.15;;;19.80;56.90;;;;;;5090786;28;20047;-77
2022/04/22 12:09:19;;;;;;;4.45;2.60;;;19.10;56.90;;;;;;5089363;28;20054;-77
2022/04/22 12:11:45;;;;;;;5.28;2.22;;;19.90;55.70;;;;;;5103115;28;20055;-77
2022/04/22 12:14:12;;;;;;;2.42;1.77;;;20.00;56.90;;;;;;5109106;28;20458;-78
2022/04/22 12:16:38;;;;;;;3.90;1.77;;;20.10;57.00;;;;;;5089078;28;20126;-77
2022/04/22 12:19:07;;;;;;;3.72;2.10;;;20.10;56.10;;;;;;5090586;28;20491;-77
2022/04/22 12:21:34;;;;;;;3.30;2.08;;;20.10;55.70;;;;;;5089521;28;20456;-77
2022/04/22 12:24:02;;;;;;;3.63;2.05;;;20.20;56.10;;;;;;5107959;28;20054;-77
2022/04/22 12:26:33;;;;;;;5.57;2.25;;;20.30;55.80;;;;;;5089631;28;20139;-77
2022/04/22 12:29:17;;;;;;;4.88;1.67;;;20.40;55.80;;;;;;5072646;28;20028;-76
2022/04/22 12:31:49;;;;;;;3.70;2.15;;;20.40;55.30;;;;;;5072836;28;20271;-77
2022/04/22 12:34:28;;;;;;;3.05;1.75;;;20.60;54.90;;;;;;5071336;28;20051;-77
2022/04/22 12:36:58;;;;;;;5.78;2.70;;;20.70;55.00;;;;;;5089892;28;20044;-77
2022/04/22 12:39:32;;;;;;;3.15;1.85;;;20.70;54.70;;;;;;5107653;28;20039;-76
2022/04/22 12:41:58;;;;;;;5.15;2.00;;;20.80;54.40;;;;;;5068629;28;20106;-77
2022/04/22 12:44:24;;;;;;;5.55;2.20;;;20.80;54.50;;;;;;5069499;28;20438;-77
2022/04/22 12:52:32;;;;;;;3.13;2.00;;;20.70;54.10;;;;;;5052958;28;20044;-78
2022/04/22 12:55:05;;;;;;;5.40;2.35;;;20.70;54.20;;;;;;5085088;28;20036;-78
2022/04/22 12:57:31;;;;;;;4.13;2.10;;;20.80;53.70;;;;;;5069874;28;20036;-77
2022/04/22 12:59:57;;;;;;;4.32;2.20;;;20.80;54.30;;;;;;5052197;28;20054;-76
2022/04/22 13:02:33;;;;;;;3.15;2.47;;;21.00;55.50;;;;;;5086717;28;20044;-76
2022/04/22 13:05:00;;;;;;;7.82;3.00;;;20.90;54.40;;;;;;5085760;28;20052;-75
2022/04/22 13:07:41;;;;;;;6.50;2.35;;;21.00;55.00;;;;;;5085768;28;20111;-76
2022/04/22 13:10:10;;;;;;;4.18;2.33;;;21.00;53.80;;;;;;5086246;28;20081;-76
2022/04/22 13:12:39;;;;;;;4.57;2.38;;;21.00;54.00;;;;;;5084706;28;20036;-76
2022/04/22 13:15:12;;;;;;;2.75;2.00;;;20.90;54.30;;;;;;5069366;28;20127;-75
2022/04/22 13:17:43;;;;;;;3.03;2.38;;;20.90;54.60;;;;;;5069280;28;20051;-75
2022/04/22 13:20:10;;;;;;;2.92;2.15;;;21.00;54.20;;;;;;5085923;28;20051;-75
2022/04/22 13:22:36;;;;;;;4.78;2.55;;;21.00;54.30;;;;;;5069392;28;20506;-76
2022/04/22 13:25:04;;;;;;;6.57;3.22;;;21.00;54.40;;;;;;5087159;28;20036;-75
2022/04/22 13:27:30;;;;;;;5.45;2.80;;;21.00;54.40;;;;;;5087744;28;20073;-74
2022/04/22 13:29:55;;;;;;;3.83;2.40;;;21.10;55.10;;;;;;5087210;28;20044;-75
2022/04/22 13:32:21;;;;;;;3.38;2.28;;;21.20;53.90;;;;;;5087469;28;20047;-75
2022/04/22 13:34:47;;;;;;;4.05;2.50;;;21.10;53.30;;;;;;5087782;28;20047;-75
2022/04/22 13:37:13;;;;;;;6.78;2.30;;;21.10;53.70;;;;;;5069114;28;20052;-75
2022/04/22 13:39:39;;;;;;;4.57;2.08;;;21.20;53.40;;;;;;5088832;28;20040;-76
2022/04/22 13:42:05;;;;;;;4.68;2.45;;;21.10;53.20;;;;;;5068312;28;20036;-76
2022/04/22 13:52:45;;;;;;;4.22;2.28;;;21.40;53.50;;;;;;5085670;28;20051;-76
2022/04/22 13:55:12;;;;;;;4.85;2.33;;;21.30;53.20;;;;;;5084317;28;20036;-76
2022/04/22 13:57:38;;;;;;;4.80;2.65;;;21.10;53.30;;;;;;5068704;28;20632;-76
2022/04/22 14:00:04;;;;;;;8.77;2.80;;;21.20;53.20;;;;;;5084495;28;20468;-75
2022/04/22 14:02:31;;;;;;;5.55;2.55;;;21.30;53.00;;;;;;5084928;28;20047;-74
2022/04/22 14:04:56;;;;;;;7.53;2.95;;;21.30;53.10;;;;;;5068305;28;20135;-75
2022/04/22 14:07:22;;;;;;;3.38;2.30;;;21.50;52.80;;;;;;5085254;28;20076;-75
2022/04/22 14:09:49;;;;;;;5.28;2.67;;;21.60;52.60;;;;;;5087643;28;20105;-76
2022/04/22 14:12:15;;;;;;;6.00;2.67;;;21.80;52.60;;;;;;5084608;28;20036;-75
2022/04/22 14:14:41;;;;;;;6.57;3.20;;;21.90;52.00;;;;;;5086072;28;20047;-75
2022/04/22 14:17:07;;;;;;;5.00;2.75;;;21.90;51.70;;;;;;5084847;28;20492;-76